sensor_id;sensor_type;location;lat;lon;timestamp;temperature;humidity
38239;DHT22;24035;48.900;9.188;2023-05-10T00:00:24;13.70;1.00
38239;DHT22;24035;48.900;9.188;2023-05-10T00:02:49;13.60;1.00
38239;DHT22;24035;48.900;9.188;2023-05-10T00:05:15;13.50;1.00
38239;DHT22;24035;48.900;9.188;2023-05-10T00:08:09;13.40;99.90
38239;DHT22;24035;48.900;9.188;2023-05-10T00:10:35;13.30;1.00
38239;DHT22;24035;48.900;9.188;2023-05-10T00:13:01;13.20;1.00
38239;DHT22;24035;48.900;9.188;2023-05-10T00:15:27;13.10;1.00
38239;DHT22;24035;48.900;9.188;2023-05-10T00:17:53;13.00;1.00
38239;DHT22;24035;48.900;9.188;2023-05-10T00:20:18;13.00;1.00
38239;DHT22;24035;48.900;9.188;2023-05-10T00:22:44;12.90;1.00
38239;DHT22;24035;48.900;9.188;2023-05-10T00:25:10;12.90;1.00
38239;DHT22;24035;48.900;9.188;2023-05-10T00:27:36;12.80;1.00
38239;DHT22;24035;48.900;9.188;2023-05-10T00:30:01;12.80;1.00
38239;DHT22;24035;48.900;9.188;2023-05-10T00:32:27;12.80;1.00
38239;DHT22;24035;48.900;9.188;2023-05-10T00:34:53;12.70;1.00
38239;DHT22;24035;48.900;9.188;2023-05-10T00:37:18;12.80;99.90
38239;DHT22;24035;48.900;9.188;2023-05-10T00:39:44;12.70;99.90
38239;DHT22;24035;48.900;9.188;2023-05-10T00:42:09;12.70;99.90
38239;DHT22;24035;48.900;9.188;2023-05-10T00:44:35;12.70;99.90
38239;DHT22;24035;48.900;9.188;2023-05-10T00:47:01;12.60;99.90
38239;DHT22;24035;48.900;9.188;2023-05-10T00:49:26;12.60;99.90
38239;DHT22;24035;48.900;9.188;2023-05-10T00:51:53;12.60;99.90
38239;DHT22;24035;48.900;9.188;2023-05-10T00:54:18;12.60;99.90
38239;DHT22;24035;48.900;9.188;2023-05-10T00:56:44;12.60;99.90
38239;DHT22;24035;48.900;9.188;2023-05-10T00:59:15;12.60;1.00
38239;DHT22;24035;48.900;9.188;2023-05-10T01:01:43;12.60;1.00
38239;DHT22;24035;48.900;9.188;2023-05-10T01:04:09;12.60;1.00
38239;DHT22;24035;48.900;9.188;2023-05-10T01:06:36;12.60;1.00
38239;DHT22;24035;48.900;9.188;2023-05-10T01:09:02;12.50;93.50
38239;DHT22;24035;48.900;9.188;2023-05-10T01:11:28;12.50;99.90
38239;DHT22;24035;48.900;9.188;2023-05-10T01:13:57;12.60;99.90
38239;DHT22;24035;48.900;9.188;2023-05-10T01:16:24;12.50;99.90
38239;DHT22;24035;48.900;9.188;2023-05-10T01:18:51;12.50;99.90
38239;DHT22;24035;48.900;9.188;2023-05-10T01:21:27;12.50;99.90
38239;DHT22;24035;48.900;9.188;2023-05-10T01:27:14;12.50;1.00
38239;DHT22;24035;48.900;9.188;2023-05-10T01:33:24;12.50;1.00
38239;DHT22;24035;48.900;9.188;2023-05-10T01:36:02;12.50;1.00
38239;DHT22;24035;48.900;9.188;2023-05-10T01:41:36;12.60;1.00
38239;DHT22;24035;48.900;9.188;2023-05-10T01:46:39;12.50;1.00
38239;DHT22;24035;48.900;9.188;2023-05-10T01:49:26;12.50;99.90
38239;DHT22;24035;48.900;9.188;2023-05-10T01:51:54;12.50;99.90
38239;DHT22;24035;48.900;9.188;2023-05-10T01:54:24;12.50;99.90
38239;DHT22;24035;48.900;9.188;2023-05-10T01:56:58;12.50;1.00
38239;DHT22;24035;48.900;9.188;2023-05-10T01:59:29;12.50;1.00
38239;DHT22;24035;48.900;9.188;2023-05-10T02:01:58;12.50;99.90
38239;DHT22;24035;48.900;9.188;2023-05-10T02:04:25;12.50;99.90
38239;DHT22;24035;48.900;9.188;2023-05-10T02:06:53;12.40;99.90
38239;DHT22;24035;48.900;9.188;2023-05-10T02:09:20;12.40;1.00
38239;DHT22;24035;48.900;9.188;2023-05-10T02:11:48;12.40;1.00
38239;DHT22;24035;48.900;9.188;2023-05-10T02:14:15;12.40;1.00
38239;DHT22;24035;48.900;9.188;2023-05-10T02:16:43;12.40;1.00
38239;DHT22;24035;48.900;9.188;2023-05-10T02:19:11;12.30;60.90
38239;DHT22;24035;48.900;9.188;2023-05-10T02:21:39;12.40;99.90
38239;DHT22;24035;48.900;9.188;2023-05-10T02:24:05;12.40;99.90
38239;DHT22;24035;48.900;9.188;2023-05-10T02:26:34;12.40;99.90
38239;DHT22;24035;48.900;9.188;2023-05-10T02:29:02;12.40;99.90
38239;DHT22;24035;48.900;9.188;2023-05-10T02:31:31;12.30;99.90
38239;DHT22;24035;48.900;9.188;2023-05-10T02:33:59;12.40;99.90
38239;DHT22;24035;48.900;9.188;2023-05-10T02:36:26;12.30;99.90
38239;DHT22;24035;48.900;9.188;2023-05-10T02:38:53;12.30;99.90
38239;DHT22;24035;48.900;9.188;2023-05-10T02:41:20;12.40;99.90
38239;DHT22;24035;48.900;9.188;2023-05-10T02:43:50;12.40;99.90
38239;DHT22;24035;48.900;9.188;2023-05-10T02:46:20;12.40;99.90
38239;DHT22;24035;48.900;9.188;2023-05-10T02:48:46;12.40;99.90
38239;DHT22;24035;48.900;9.188;2023-05-10T02:51:14;12.40;1.00
38239;DHT22;24035;48.900;9.188;2023-05-10T02:53:44;12.50;1.00
38239;DHT22;24035;48.900;9.188;2023-05-10T02:56:24;12.50;1.00
38239;DHT22;24035;48.900;9.188;2023-05-10T02:58:51;12.50;1.00
38239;DHT22;24035;48.900;9.188;2023-05-10T03:01:17;12.40;1.00
38239;DHT22;24035;48.900;9.188;2023-05-10T03:03:43;12.50;1.00
38239;DHT22;24035;48.900;9.188;2023-05-10T03:06:08;12.50;1.00
38239;DHT22;24035;48.900;9.188;2023-05-10T03:08:34;12.60;99.90
38239;DHT22;24035;48.900;9.188;2023-05-10T03:13:54;12.60;99.90
38239;DHT22;24035;48.900;9.188;2023-05-10T03:16:27;12.50;99.90
38239;DHT22;24035;48.900;9.188;2023-05-10T03:21:41;12.60;99.90
38239;DHT22;24035;48.900;9.188;2023-05-10T03:24:11;12.60;99.90
38239;DHT22;24035;48.900;9.188;2023-05-10T03:26:38;12.60;99.90
38239;DHT22;24035;48.900;9.188;2023-05-10T03:29:06;12.60;1.00
38239;DHT22;24035;48.900;9.188;2023-05-10T03:31:33;12.70;45.80
38239;DHT22;24035;48.900;9.188;2023-05-10T03:33:59;12.70;1.00
38239;DHT22;24035;48.900;9.188;2023-05-10T03:36:25;12.70;1.00
38239;DHT22;24035;48.900;9.188;2023-05-10T03:38:50;12.70;1.00
38239;DHT22;24035;48.900;9.188;2023-05-10T03:41:16;12.70;1.00
38239;DHT22;24035;48.900;9.188;2023-05-10T03:43:42;12.70;1.00
38239;DHT22;24035;48.900;9.188;2023-05-10T03:46:07;12.70;1.00
38239;DHT22;24035;48.900;9.188;2023-05-10T03:48:33;12.80;1.00
38239;DHT22;24035;48.900;9.188;2023-05-10T03:50:59;12.80;1.00
38239;DHT22;24035;48.900;9.188;2023-05-10T03:53:25;12.80;1.00
38239;DHT22;24035;48.900;9.188;2023-05-10T03:55:51;12.80;1.00
38239;DHT22;24035;48.900;9.188;2023-05-10T03:58:16;12.80;1.00
38239;DHT22;24035;48.900;9.188;2023-05-10T04:00:42;12.70;1.00
38239;DHT22;24035;48.900;9.188;2023-05-10T04:03:11;12.80;1.00
38239;DHT22;24035;48.900;9.188;2023-05-10T04:05:36;12.80;1.00
38239;DHT22;24035;48.900;9.188;2023-05-10T04:08:03;12.80;1.00
38239;DHT22;24035;48.900;9.188;2023-05-10T04:10:29;12.70;1.00
38239;DHT22;24035;48.900;9.188;2023-05-10T04:12:55;12.80;5.40
38239;DHT22;24035;48.900;9.188;2023-05-10T04:15:21;12.80;1.00
38239;DHT22;24035;48.900;9.188;2023-05-10T04:17:46;12.70;8.20
38239;DHT22;24035;48.900;9.188;2023-05-10T04:20:12;12.70;1.00
38239;DHT22;24035;48.900;9.188;2023-05-10T04:22:38;12.70;1.00
38239;DHT22;24035;48.900;9.188;2023-05-10T04:25:04;12.80;1.00
38239;DHT22;24035;48.900;9.188;2023-05-10T04:27:30;12.80;1.00
38239;DHT22;24035;48.900;9.188;2023-05-10T04:29:56;12.80;1.00
38239;DHT22;24035;48.900;9.188;2023-05-10T04:32:22;12.80;1.00
38239;DHT22;24035;48.900;9.188;2023-05-10T04:34:48;12.80;1.00
38239;DHT22;24035;48.900;9.188;2023-05-10T04:37:13;12.80;99.90
38239;DHT22;24035;48.900;9.188;2023-05-10T04:39:39;12.80;1.00
38239;DHT22;24035;48.900;9.188;2023-05-10T04:42:05;12.80;1.00
38239;DHT22;24035;48.900;9.188;2023-05-10T04:44:31;12.80;1.00
38239;DHT22;24035;48.900;9.188;2023-05-10T04:46:57;12.80;1.00
38239;DHT22;24035;48.900;9.188;2023-05-10T04:49:23;12.80;1.00
38239;DHT22;24035;48.900;9.188;2023-05-10T04:51:48;12.80;1.00
38239;DHT22;24035;48.900;9.188;2023-05-10T04:54:14;12.80;1.00
38239;DHT22;24035;48.900;9.188;2023-05-10T04:56:40;12.80;1.00
38239;DHT22;24035;48.900;9.188;2023-05-10T04:59:06;12.80;1.00
38239;DHT22;24035;48.900;9.188;2023-05-10T05:01:32;12.90;1.00
38239;DHT22;24035;48.900;9.188;2023-05-10T05:03:58;12.90;99.90
38239;DHT22;24035;48.900;9.188;2023-05-10T05:06:24;13.00;99.90
38239;DHT22;24035;48.900;9.188;2023-05-10T05:08:50;13.00;99.90
38239;DHT22;24035;48.900;9.188;2023-05-10T05:11:17;13.10;99.90
38239;DHT22;24035;48.900;9.188;2023-05-10T05:13:43;13.20;1.00
38239;DHT22;24035;48.900;9.188;2023-05-10T05:16:09;13.30;1.00
38239;DHT22;24035;48.900;9.188;2023-05-10T05:18:35;13.40;1.00
38239;DHT22;24035;48.900;9.188;2023-05-10T05:21:01;13.50;1.00
38239;DHT22;24035;48.900;9.188;2023-05-10T05:23:26;13.70;99.90
38239;DHT22;24035;48.900;9.188;2023-05-10T05:25:53;13.80;1.00
38239;DHT22;24035;48.900;9.188;2023-05-10T05:28:21;14.00;1.00
38239;DHT22;24035;48.900;9.188;2023-05-10T05:30:47;14.20;1.00
38239;DHT22;24035;48.900;9.188;2023-05-10T05:33:14;14.50;99.90
38239;DHT22;24035;48.900;9.188;2023-05-10T05:35:41;14.70;99.90
38239;DHT22;24035;48.900;9.188;2023-05-10T05:38:08;14.80;77.90
38239;DHT22;24035;48.900;9.188;2023-05-10T05:40:34;14.80;1.00
38239;DHT22;24035;48.900;9.188;2023-05-10T05:42:59;14.90;1.00
38239;DHT22;24035;48.900;9.188;2023-05-10T05:45:25;14.60;1.00
38239;DHT22;24035;48.900;9.188;2023-05-10T05:47:51;14.70;1.00
38239;DHT22;24035;48.900;9.188;2023-05-10T05:50:16;14.50;1.00
38239;DHT22;24035;48.900;9.188;2023-05-10T05:52:42;14.50;1.00
38239;DHT22;24035;48.900;9.188;2023-05-10T05:55:08;14.60;99.90
38239;DHT22;24035;48.900;9.188;2023-05-10T05:57:34;14.70;1.00
38239;DHT22;24035;48.900;9.188;2023-05-10T05:59:59;14.70;66.60
38239;DHT22;24035;48.900;9.188;2023-05-10T06:02:25;14.70;1.00
38239;DHT22;24035;48.900;9.188;2023-05-10T06:04:51;14.50;1.00
38239;DHT22;24035;48.900;9.188;2023-05-10T06:07:16;14.50;1.00
38239;DHT22;24035;48.900;9.188;2023-05-10T06:09:42;14.40;1.00
38239;DHT22;24035;48.900;9.188;2023-05-10T06:12:08;14.50;99.90
38239;DHT22;24035;48.900;9.188;2023-05-10T06:14:33;14.70;96.40
38239;DHT22;24035;48.900;9.188;2023-05-10T06:16:59;14.70;1.00
38239;DHT22;24035;48.900;9.188;2023-05-10T06:19:25;14.80;1.00
38239;DHT22;24035;48.900;9.188;2023-05-10T06:21:52;14.70;1.00
38239;DHT22;24035;48.900;9.188;2023-05-10T06:24:17;14.80;1.00
38239;DHT22;24035;48.900;9.188;2023-05-10T06:26:43;14.90;1.00
38239;DHT22;24035;48.900;9.188;2023-05-10T06:29:08;15.00;1.00
38239;DHT22;24035;48.900;9.188;2023-05-10T06:31:34;15.10;1.00
38239;DHT22;24035;48.900;9.188;2023-05-10T06:34:00;15.10;99.90
38239;DHT22;24035;48.900;9.188;2023-05-10T06:36:25;15.10;97.20
38239;DHT22;24035;48.900;9.188;2023-05-10T06:38:52;15.20;99.90
38239;DHT22;24035;48.900;9.188;2023-05-10T06:41:18;15.20;1.00
38239;DHT22;24035;48.900;9.188;2023-05-10T06:43:43;15.40;1.00
38239;DHT22;24035;48.900;9.188;2023-05-10T06:46:09;15.40;1.00
38239;DHT22;24035;48.900;9.188;2023-05-10T06:48:35;15.40;1.00
38239;DHT22;24035;48.900;9.188;2023-05-10T06:51:01;15.50;1.00
38239;DHT22;24035;48.900;9.188;2023-05-10T06:53:26;15.50;1.00
38239;DHT22;24035;48.900;9.188;2023-05-10T06:55:52;15.70;1.00
38239;DHT22;24035;48.900;9.188;2023-05-10T06:58:18;15.70;1.00
38239;DHT22;24035;48.900;9.188;2023-05-10T07:00:44;15.70;99.90
38239;DHT22;24035;48.900;9.188;2023-05-10T07:03:11;16.00;99.90
38239;DHT22;24035;48.900;9.188;2023-05-10T07:05:36;16.10;1.00
38239;DHT22;24035;48.900;9.188;2023-05-10T07:08:02;16.10;1.00
38239;DHT22;24035;48.900;9.188;2023-05-10T07:10:28;16.20;1.00
38239;DHT22;24035;48.900;9.188;2023-05-10T07:12:53;16.30;1.00
38239;DHT22;24035;48.900;9.188;2023-05-10T07:15:19;16.50;1.00
38239;DHT22;24035;48.900;9.188;2023-05-10T07:17:45;16.80;1.00
38239;DHT22;24035;48.900;9.188;2023-05-10T07:20:11;16.80;1.00
38239;DHT22;24035;48.900;9.188;2023-05-10T07:22:37;17.00;1.00
38239;DHT22;24035;48.900;9.188;2023-05-10T07:25:03;16.80;1.00
38239;DHT22;24035;48.900;9.188;2023-05-10T07:27:28;16.60;1.00
38239;DHT22;24035;48.900;9.188;2023-05-10T07:29:54;16.60;1.00
38239;DHT22;24035;48.900;9.188;2023-05-10T07:32:20;16.60;1.00
38239;DHT22;24035;48.900;9.188;2023-05-10T07:34:46;16.80;1.00
38239;DHT22;24035;48.900;9.188;2023-05-10T07:37:12;17.20;1.00
38239;DHT22;24035;48.900;9.188;2023-05-10T07:39:37;17.50;99.90
38239;DHT22;24035;48.900;9.188;2023-05-10T07:42:03;17.30;99.90
38239;DHT22;24035;48.900;9.188;2023-05-10T07:44:29;16.90;99.90
38239;DHT22;24035;48.900;9.188;2023-05-10T07:46:54;16.90;1.00
38239;DHT22;24035;48.900;9.188;2023-05-10T07:49:21;16.90;99.90
38239;DHT22;24035;48.900;9.188;2023-05-10T07:51:49;16.70;99.90
38239;DHT22;24035;48.900;9.188;2023-05-10T07:54:15;16.60;99.90
38239;DHT22;24035;48.900;9.188;2023-05-10T07:56:41;16.10;99.90
38239;DHT22;24035;48.900;9.188;2023-05-10T07:59:15;16.00;99.90
38239;DHT22;24035;48.900;9.188;2023-05-10T08:01:41;16.20;99.90
38239;DHT22;24035;48.900;9.188;2023-05-10T08:04:07;16.00;99.90
38239;DHT22;24035;48.900;9.188;2023-05-10T08:06:32;16.20;99.90
38239;DHT22;24035;48.900;9.188;2023-05-10T08:08:58;16.50;99.90
38239;DHT22;24035;48.900;9.188;2023-05-10T08:11:24;16.50;11.50
38239;DHT22;24035;48.900;9.188;2023-05-10T08:13:50;16.40;1.00
38239;DHT22;24035;48.900;9.188;2023-05-10T08:16:17;16.40;6.40
38239;DHT22;24035;48.900;9.188;2023-05-10T08:18:43;16.30;1.00
38239;DHT22;24035;48.900;9.188;2023-05-10T08:21:10;16.20;56.20
38239;DHT22;24035;48.900;9.188;2023-05-10T08:23:37;16.30;1.00
38239;DHT22;24035;48.900;9.188;2023-05-10T08:26:02;16.40;33.50
38239;DHT22;24035;48.900;9.188;2023-05-10T08:28:28;16.40;1.00
38239;DHT22;24035;48.900;9.188;2023-05-10T08:30:54;16.30;1.00
38239;DHT22;24035;48.900;9.188;2023-05-10T08:33:19;16.50;12.70
38239;DHT22;24035;48.900;9.188;2023-05-10T08:35:45;16.40;1.00
38239;DHT22;24035;48.900;9.188;2023-05-10T08:38:11;16.40;67.50
38239;DHT22;24035;48.900;9.188;2023-05-10T08:40:39;16.50;1.00
38239;DHT22;24035;48.900;9.188;2023-05-10T08:43:07;16.20;1.00
38239;DHT22;24035;48.900;9.188;2023-05-10T08:45:40;16.20;99.90
38239;DHT22;24035;48.900;9.188;2023-05-10T08:48:07;16.40;95.90
38239;DHT22;24035;48.900;9.188;2023-05-10T08:50:40;16.60;1.00
38239;DHT22;24035;48.900;9.188;2023-05-10T08:53:10;16.60;1.00
38239;DHT22;24035;48.900;9.188;2023-05-10T08:55:36;16.70;1.00
38239;DHT22;24035;48.900;9.188;2023-05-10T08:58:04;17.00;1.00
38239;DHT22;24035;48.900;9.188;2023-05-10T09:00:30;16.90;1.00
38239;DHT22;24035;48.900;9.188;2023-05-10T09:02:58;17.10;1.00
38239;DHT22;24035;48.900;9.188;2023-05-10T09:05:23;17.10;1.00
38239;DHT22;24035;48.900;9.188;2023-05-10T09:07:49;17.40;1.00
38239;DHT22;24035;48.900;9.188;2023-05-10T09:10:15;17.30;1.00
38239;DHT22;24035;48.900;9.188;2023-05-10T09:12:41;17.50;1.00
38239;DHT22;24035;48.900;9.188;2023-05-10T09:15:07;17.50;1.00
38239;DHT22;24035;48.900;9.188;2023-05-10T09:17:34;17.70;1.00
38239;DHT22;24035;48.900;9.188;2023-05-10T09:20:01;17.60;1.00
38239;DHT22;24035;48.900;9.188;2023-05-10T09:22:28;17.30;1.00
38239;DHT22;24035;48.900;9.188;2023-05-10T09:25:11;17.50;1.00
38239;DHT22;24035;48.900;9.188;2023-05-10T09:27:38;17.50;1.00
38239;DHT22;24035;48.900;9.188;2023-05-10T09:30:04;17.30;1.00
38239;DHT22;24035;48.900;9.188;2023-05-10T09:32:40;17.30;1.00
38239;DHT22;24035;48.900;9.188;2023-05-10T09:35:17;17.70;1.00
38239;DHT22;24035;48.900;9.188;2023-05-10T09:37:48;17.70;1.00
38239;DHT22;24035;48.900;9.188;2023-05-10T09:40:23;17.90;1.00
38239;DHT22;24035;48.900;9.188;2023-05-10T09:43:01;18.10;1.00
38239;DHT22;24035;48.900;9.188;2023-05-10T09:45:31;18.40;1.00
38239;DHT22;24035;48.900;9.188;2023-05-10T09:47:58;18.40;1.00
38239;DHT22;24035;48.900;9.188;2023-05-10T09:50:25;18.60;99.90
38239;DHT22;24035;48.900;9.188;2023-05-10T09:55:26;19.20;99.90
38239;DHT22;24035;48.900;9.188;2023-05-10T09:58:03;19.10;99.90
38239;DHT22;24035;48.900;9.188;2023-05-10T10:00:38;18.80;99.90
38239;DHT22;24035;48.900;9.188;2023-05-10T10:03:05;18.60;99.90
38239;DHT22;24035;48.900;9.188;2023-05-10T10:05:32;18.70;99.90
38239;DHT22;24035;48.900;9.188;2023-05-10T10:07:59;18.80;99.90
38239;DHT22;24035;48.900;9.188;2023-05-10T10:10:25;18.60;99.90
38239;DHT22;24035;48.900;9.188;2023-05-10T10:12:52;18.40;99.90
38239;DHT22;24035;48.900;9.188;2023-05-10T10:15:18;18.10;99.90
38239;DHT22;24035;48.900;9.188;2023-05-10T10:17:44;17.80;99.90
38239;DHT22;24035;48.900;9.188;2023-05-10T10:20:10;17.60;99.90
38239;DHT22;24035;48.900;9.188;2023-05-10T10:22:37;17.40;1.00
38239;DHT22;24035;48.900;9.188;2023-05-10T10:25:04;17.70;1.00
38239;DHT22;24035;48.900;9.188;2023-05-10T10:36:02;17.80;99.90
38239;DHT22;24035;48.900;9.188;2023-05-10T10:38:54;18.10;99.90
38239;DHT22;24035;48.900;9.188;2023-05-10T10:41:35;18.30;99.90
38239;DHT22;24035;48.900;9.188;2023-05-10T10:54:41;18.60;99.90
38239;DHT22;24035;48.900;9.188;2023-05-10T10:57:11;18.60;99.90
38239;DHT22;24035;48.900;9.188;2023-05-10T10:59:42;18.50;99.90
38239;DHT22;24035;48.900;9.188;2023-05-10T11:02:09;18.50;99.90
38239;DHT22;24035;48.900;9.188;2023-05-10T11:04:42;18.60;99.90
38239;DHT22;24035;48.900;9.188;2023-05-10T11:07:18;18.40;99.90
38239;DHT22;24035;48.900;9.188;2023-05-10T11:09:47;18.20;99.90
38239;DHT22;24035;48.900;9.188;2023-05-10T11:12:12;17.70;99.90
38239;DHT22;24035;48.900;9.188;2023-05-10T11:14:38;17.70;99.90
38239;DHT22;24035;48.900;9.188;2023-05-10T11:17:23;17.70;99.90
38239;DHT22;24035;48.900;9.188;2023-05-10T11:20:08;17.40;99.90
38239;DHT22;24035;48.900;9.188;2023-05-10T11:22:50;17.30;99.90
38239;DHT22;24035;48.900;9.188;2023-05-10T11:25:17;17.40;99.90
38239;DHT22;24035;48.900;9.188;2023-05-10T11:27:43;17.30;99.90
38239;DHT22;24035;48.900;9.188;2023-05-10T11:30:10;17.50;99.90
38239;DHT22;24035;48.900;9.188;2023-05-10T11:32:40;17.70;99.90
38239;DHT22;24035;48.900;9.188;2023-05-10T11:35:10;17.90;99.90
38239;DHT22;24035;48.900;9.188;2023-05-10T11:37:38;18.60;99.90
38239;DHT22;24035;48.900;9.188;2023-05-10T11:40:25;18.40;99.90
38239;DHT22;24035;48.900;9.188;2023-05-10T11:42:51;18.40;99.90
38239;DHT22;24035;48.900;9.188;2023-05-10T11:45:17;18.80;99.90
38239;DHT22;24035;48.900;9.188;2023-05-10T11:47:44;19.10;99.90
38239;DHT22;24035;48.900;9.188;2023-05-10T11:50:11;18.80;99.90
38239;DHT22;24035;48.900;9.188;2023-05-10T11:52:37;18.70;99.90
38239;DHT22;24035;48.900;9.188;2023-05-10T11:55:03;18.40;99.90
38239;DHT22;24035;48.900;9.188;2023-05-10T11:57:29;18.70;99.90
38239;DHT22;24035;48.900;9.188;2023-05-10T11:59:58;19.20;99.90
38239;DHT22;24035;48.900;9.188;2023-05-10T12:02:25;19.30;99.90
38239;DHT22;24035;48.900;9.188;2023-05-10T12:04:51;19.40;99.90
38239;DHT22;24035;48.900;9.188;2023-05-10T12:07:17;19.30;99.90
38239;DHT22;24035;48.900;9.188;2023-05-10T12:10:05;19.30;99.90
38239;DHT22;24035;48.900;9.188;2023-05-10T12:12:39;18.80;99.90
38239;DHT22;24035;48.900;9.188;2023-05-10T12:15:05;18.10;99.90
38239;DHT22;24035;48.900;9.188;2023-05-10T12:17:37;18.40;99.90
38239;DHT22;24035;48.900;9.188;2023-05-10T12:20:18;18.70;99.90
38239;DHT22;24035;48.900;9.188;2023-05-10T12:22:47;18.80;99.90
38239;DHT22;24035;48.900;9.188;2023-05-10T12:25:13;18.90;99.90
38239;DHT22;24035;48.900;9.188;2023-05-10T12:27:38;18.60;99.90
38239;DHT22;24035;48.900;9.188;2023-05-10T12:30:04;18.30;99.90
38239;DHT22;24035;48.900;9.188;2023-05-10T12:32:40;18.10;99.90
38239;DHT22;24035;48.900;9.188;2023-05-10T12:35:07;17.70;99.90
38239;DHT22;24035;48.900;9.188;2023-05-10T12:37:33;17.60;99.90
38239;DHT22;24035;48.900;9.188;2023-05-10T12:40:08;17.10;99.90
38239;DHT22;24035;48.900;9.188;2023-05-10T12:42:34;17.20;99.90
38239;DHT22;24035;48.900;9.188;2023-05-10T12:45:01;17.30;99.90
38239;DHT22;24035;48.900;9.188;2023-05-10T12:47:28;17.70;99.90
38239;DHT22;24035;48.900;9.188;2023-05-10T12:49:53;17.70;99.90
38239;DHT22;24035;48.900;9.188;2023-05-10T12:52:19;17.80;99.90
38239;DHT22;24035;48.900;9.188;2023-05-10T12:54:46;18.00;99.90
38239;DHT22;24035;48.900;9.188;2023-05-10T12:57:12;17.90;99.90
38239;DHT22;24035;48.900;9.188;2023-05-10T12:59:38;18.30;99.90
38239;DHT22;24035;48.900;9.188;2023-05-10T13:02:04;18.50;99.90
38239;DHT22;24035;48.900;9.188;2023-05-10T13:04:30;18.30;99.90
38239;DHT22;24035;48.900;9.188;2023-05-10T13:06:55;18.20;99.90
38239;DHT22;24035;48.900;9.188;2023-05-10T13:09:27;18.10;99.90
38239;DHT22;24035;48.900;9.188;2023-05-10T13:11:56;18.00;99.90
38239;DHT22;24035;48.900;9.188;2023-05-10T13:14:22;18.10;99.90
38239;DHT22;24035;48.900;9.188;2023-05-10T13:16:48;18.40;99.90
38239;DHT22;24035;48.900;9.188;2023-05-10T13:19:14;18.90;99.90
38239;DHT22;24035;48.900;9.188;2023-05-10T13:21:40;18.60;99.90
38239;DHT22;24035;48.900;9.188;2023-05-10T13:24:10;18.40;99.90
38239;DHT22;24035;48.900;9.188;2023-05-10T13:26:36;18.10;99.90
38239;DHT22;24035;48.900;9.188;2023-05-10T13:29:02;18.40;99.90
38239;DHT22;24035;48.900;9.188;2023-05-10T13:31:28;18.80;99.90
38239;DHT22;24035;48.900;9.188;2023-05-10T13:33:55;18.40;99.90
38239;DHT22;24035;48.900;9.188;2023-05-10T13:36:21;18.30;99.90
38239;DHT22;24035;48.900;9.188;2023-05-10T13:38:48;18.10;99.90
38239;DHT22;24035;48.900;9.188;2023-05-10T13:41:14;17.70;99.90
38239;DHT22;24035;48.900;9.188;2023-05-10T13:43:39;17.30;99.90
38239;DHT22;24035;48.900;9.188;2023-05-10T13:46:05;17.10;99.90
38239;DHT22;24035;48.900;9.188;2023-05-10T13:48:31;17.60;99.90
38239;DHT22;24035;48.900;9.188;2023-05-10T13:50:56;18.20;99.90
38239;DHT22;24035;48.900;9.188;2023-05-10T13:53:22;18.30;99.90
38239;DHT22;24035;48.900;9.188;2023-05-10T13:55:48;18.10;99.90
38239;DHT22;24035;48.900;9.188;2023-05-10T13:58:14;18.40;99.90
38239;DHT22;24035;48.900;9.188;2023-05-10T14:00:40;18.30;99.90
38239;DHT22;24035;48.900;9.188;2023-05-10T14:03:05;18.00;99.90
38239;DHT22;24035;48.900;9.188;2023-05-10T14:05:34;17.80;99.90
38239;DHT22;24035;48.900;9.188;2023-05-10T14:08:09;17.80;99.90
38239;DHT22;24035;48.900;9.188;2023-05-10T14:10:35;18.00;99.90
38239;DHT22;24035;48.900;9.188;2023-05-10T14:13:02;18.50;99.90
38239;DHT22;24035;48.900;9.188;2023-05-10T14:15:28;18.60;99.90
38239;DHT22;24035;48.900;9.188;2023-05-10T14:17:54;18.40;99.90
38239;DHT22;24035;48.900;9.188;2023-05-10T14:20:20;18.20;99.90
38239;DHT22;24035;48.900;9.188;2023-05-10T14:22:45;18.10;99.90
38239;DHT22;24035;48.900;9.188;2023-05-10T14:25:11;17.80;99.90
38239;DHT22;24035;48.900;9.188;2023-05-10T14:27:38;17.40;99.90
38239;DHT22;24035;48.900;9.188;2023-05-10T14:30:04;17.30;99.90
38239;DHT22;24035;48.900;9.188;2023-05-10T14:32:30;17.60;99.90
38239;DHT22;24035;48.900;9.188;2023-05-10T14:34:57;17.60;99.90
38239;DHT22;24035;48.900;9.188;2023-05-10T14:37:23;17.70;99.90
38239;DHT22;24035;48.900;9.188;2023-05-10T14:39:48;18.20;99.90
38239;DHT22;24035;48.900;9.188;2023-05-10T14:42:14;18.30;99.90
38239;DHT22;24035;48.900;9.188;2023-05-10T14:44:40;18.30;99.90
38239;DHT22;24035;48.900;9.188;2023-05-10T14:47:05;18.40;99.90
38239;DHT22;24035;48.900;9.188;2023-05-10T14:49:31;18.70;99.90
38239;DHT22;24035;48.900;9.188;2023-05-10T14:51:57;18.60;99.90
38239;DHT22;24035;48.900;9.188;2023-05-10T14:54:22;18.50;99.90
38239;DHT22;24035;48.900;9.188;2023-05-10T14:56:48;18.50;99.90
38239;DHT22;24035;48.900;9.188;2023-05-10T14:59:15;18.80;99.90
38239;DHT22;24035;48.900;9.188;2023-05-10T15:01:41;18.90;99.90
38239;DHT22;24035;48.900;9.188;2023-05-10T15:04:07;18.90;99.90
38239;DHT22;24035;48.900;9.188;2023-05-10T15:06:34;19.20;99.90
38239;DHT22;24035;48.900;9.188;2023-05-10T15:09:01;19.30;99.90
38239;DHT22;24035;48.900;9.188;2023-05-10T15:11:27;19.40;99.90
38239;DHT22;24035;48.900;9.188;2023-05-10T15:13:53;19.60;99.90
38239;DHT22;24035;48.900;9.188;2023-05-10T15:16:19;19.50;99.90
38239;DHT22;24035;48.900;9.188;2023-05-10T15:18:45;19.50;99.90
38239;DHT22;24035;48.900;9.188;2023-05-10T15:21:11;19.70;99.90
38239;DHT22;24035;48.900;9.188;2023-05-10T15:23:37;19.70;99.90
38239;DHT22;24035;48.900;9.188;2023-05-10T15:26:03;19.50;99.90
38239;DHT22;24035;48.900;9.188;2023-05-10T15:28:29;19.40;99.90
38239;DHT22;24035;48.900;9.188;2023-05-10T15:30:55;19.40;99.90
38239;DHT22;24035;48.900;9.188;2023-05-10T15:33:24;19.40;99.90
38239;DHT22;24035;48.900;9.188;2023-05-10T15:35:50;19.30;99.90
38239;DHT22;24035;48.900;9.188;2023-05-10T15:38:15;19.30;99.90
38239;DHT22;24035;48.900;9.188;2023-05-10T15:40:41;18.80;99.90
38239;DHT22;24035;48.900;9.188;2023-05-10T15:43:07;18.40;99.90
38239;DHT22;24035;48.900;9.188;2023-05-10T15:45:34;18.20;99.90
38239;DHT22;24035;48.900;9.188;2023-05-10T15:47:59;18.20;99.90
38239;DHT22;24035;48.900;9.188;2023-05-10T15:50:25;17.90;99.90
38239;DHT22;24035;48.900;9.188;2023-05-10T15:52:51;18.00;99.90
38239;DHT22;24035;48.900;9.188;2023-05-10T15:55:17;17.80;99.90
38239;DHT22;24035;48.900;9.188;2023-05-10T15:57:43;18.00;99.90
38239;DHT22;24035;48.900;9.188;2023-05-10T16:00:11;18.10;99.90
38239;DHT22;24035;48.900;9.188;2023-05-10T16:02:40;18.10;99.90
38239;DHT22;24035;48.900;9.188;2023-05-10T16:05:06;18.30;99.90
38239;DHT22;24035;48.900;9.188;2023-05-10T16:07:32;18.50;99.90
38239;DHT22;24035;48.900;9.188;2023-05-10T16:09:58;18.80;99.90
38239;DHT22;24035;48.900;9.188;2023-05-10T16:12:26;19.00;99.90
38239;DHT22;24035;48.900;9.188;2023-05-10T16:14:52;19.00;99.90
38239;DHT22;24035;48.900;9.188;2023-05-10T16:17:18;19.10;99.90